Time;durP1;ratioP1;P1;durP2;ratioP2;P2;SDS_P1;SDS_P2;PMS_P1;PMS_P2;Temp;Humidity;BMP_temperature;BMP_pressure;BME280_temperature;BME280_humidity;BME280_pressure;Samples;Min_cycle;Max_cycle;Signal;HPM_P1;HPM_P2
2022/11/18 00:00:30;;;;;;;7.43;2.78;;;;;;;6.22;100.00;99432.91;1030234;28;20302;-80
2022/11/18 00:01:19;;;;;;;5.40;2.38;;;;;;;6.19;100.00;99436.00;1027230;28;20405;-80
2022/11/18 00:01:50;;;;;;;4.68;2.72;;;;;;;6.15;100.00;99430.34;1032687;28;20302;-81
2022/11/18 00:02:22;;;;;;;9.75;2.90;;;;;;;6.10;100.00;99434.69;1038203;28;20306;-80
2022/11/18 00:02:53;;;;;;;6.53;3.75;;;;;;;6.05;100.00;99442.47;1037988;28;20839;-80
2022/11/18 00:03:25;;;;;;;11.02;2.85;;;;;;;6.05;100.00;99438.00;1042235;28;20713;-81
2022/11/18 00:03:56;;;;;;;4.05;2.63;;;;;;;6.12;100.00;99435.28;1029045;28;20385;-81
2022/11/18 00:04:28;;;;;;;3.83;2.28;;;;;;;6.11;100.00;99436.31;1027913;28;20373;-81
2022/11/18 00:05:00;;;;;;;3.92;2.60;;;;;;;6.10;100.00;99440.78;1034253;28;20427;-80
2022/11/18 00:05:31;;;;;;;7.13;2.63;;;;;;;6.13;100.00;99440.34;1029173;28;20823;-81
2022/11/18 00:06:03;;;;;;;5.60;2.35;;;;;;;6.07;100.00;99443.06;1040543;28;20812;-80
2022/11/18 00:06:35;;;;;;;5.80;2.90;;;;;;;6.12;100.00;99444.00;1043679;28;20386;-81
2022/11/18 00:07:06;;;;;;;8.52;2.45;;;;;;;6.05;100.00;99448.56;1037938;28;20288;-80
2022/11/18 00:07:38;;;;;;;4.30;3.20;;;;;;;6.03;100.00;99444.53;1036380;28;20301;-80
2022/11/18 00:08:10;;;;;;;8.77;3.67;;;;;;;6.07;100.00;99451.81;1032855;28;20327;-81
2022/11/18 00:08:41;;;;;;;7.47;2.72;;;;;;;6.23;100.00;99445.09;1032218;28;20332;-81
2022/11/18 00:09:12;;;;;;;5.00;2.35;;;;;;;6.24;100.00;99445.91;1035399;28;20394;-80
2022/11/18 00:09:45;;;;;;;3.15;2.47;;;;;;;6.28;100.00;99450.50;1035966;28;20296;-80
2022/11/18 00:10:16;;;;;;;3.50;2.80;;;;;;;6.22;100.00;99447.97;1036265;28;20865;-80
2022/11/18 00:10:48;;;;;;;3.65;2.60;;;;;;;6.29;100.00;99454.78;1028862;28;20429;-80
2022/11/18 00:14:43;;;;;;;9.13;2.47;;;;;;;6.41;100.00;99457.50;1034239;28;20308;-80
2022/11/18 00:15:14;;;;;;;7.88;2.92;;;;;;;6.36;100.00;99460.00;1037961;28;20750;-80
2022/11/18 00:15:46;;;;;;;7.32;2.67;;;;;;;6.31;100.00;99462.50;1037255;28;20300;-80
2022/11/18 00:16:17;;;;;;;6.80;3.08;;;;;;;6.27;100.00;99461.31;1030201;28;20790;-81
2022/11/18 00:16:50;;;;;;;6.28;2.05;;;;;;;6.27;100.00;99461.31;1029467;28;20354;-81
2022/11/18 00:17:22;;;;;;;12.18;3.30;;;;;;;6.25;100.00;99458.91;1027720;28;20437;-81
2022/11/18 00:17:53;;;;;;;6.97;2.25;;;;;;;6.28;100.00;99462.94;1027680;28;20380;-80
2022/11/18 00:18:26;;;;;;;8.52;3.40;;;;;;;6.27;100.00;99462.13;1028025;28;20326;-80
2022/11/18 00:18:57;;;;;;;5.40;3.08;;;;;;;6.25;100.00;99456.25;1028227;28;20672;-81
2022/11/18 00:19:34;;;;;;;3.35;2.20;;;;;;;6.25;100.00;99464.19;1028040;28;20325;-81
2022/11/18 00:20:06;;;;;;;7.80;3.15;;;;;;;6.30;100.00;99456.41;1023150;28;20310;-81
2022/11/18 00:20:38;;;;;;;5.97;3.05;;;;;;;6.42;100.00;99465.19;1024416;28;20407;-80
2022/11/18 00:21:11;;;;;;;5.20;2.60;;;;;;;6.39;100.00;99460.38;1028904;28;20441;-80
2022/11/18 00:21:42;;;;;;;6.55;2.33;;;;;;;6.47;100.00;99464.53;1025033;28;20313;-80
2022/11/18 00:22:14;;;;;;;5.43;2.67;;;;;;;6.46;100.00;99465.56;1038540;28;20374;-81
2022/11/18 00:22:46;;;;;;;3.88;2.22;;;;;;;6.43;100.00;99464.16;1034849;28;20407;-81
2022/11/18 00:23:17;;;;;;;9.32;3.13;;;;;;;6.40;100.00;99464.63;1032462;28;20741;-81
2022/11/18 00:23:49;;;;;;;4.50;2.63;;;;;;;6.46;100.00;99465.56;1031071;28;20881;-80
2022/11/18 00:24:21;;;;;;;4.28;2.60;;;;;;;6.43;100.00;99460.72;1032342;28;20416;-81
2022/11/18 00:24:52;;;;;;;7.57;2.70;;;;;;;6.43;100.00;99464.16;1032145;28;20294;-81
2022/11/18 00:25:24;;;;;;;4.68;2.58;;;;;;;6.55;100.00;99458.91;1035892;28;20786;-80
2022/11/18 00:26:13;;;;;;;8.38;3.20;;;;;;;6.52;100.00;99467.31;1036294;28;20320;-81
2022/11/18 00:26:44;;;;;;;3.75;2.97;;;;;;;6.60;100.00;99471.50;1030111;28;20387;-81
2022/11/18 00:27:16;;;;;;;7.68;3.72;;;;;;;6.54;100.00;99472.38;1028176;28;20297;-81
2022/11/18 00:27:47;;;;;;;8.25;2.33;;;;;;;6.56;100.00;99475.59;1033771;28;20862;-81
2022/11/18 00:28:19;;;;;;;5.32;4.10;;;;;;;6.60;100.00;99471.50;1034490;28;20376;-81
2022/11/18 00:28:50;;;;;;;7.63;2.97;;;;;;;6.57;100.00;99467.44;1035839;28;20852;-81
2022/11/18 00:29:25;;;;;;;5.63;2.85;;;;;;;6.58;100.00;99466.44;1035288;28;20297;-80
2022/11/18 00:29:57;;;;;;;6.32;3.40;;;;;;;6.56;100.00;99470.31;1031402;28;20293;-81
2022/11/18 00:30:28;;;;;;;7.78;3.22;;;;;;;6.67;100.00;99472.22;1032343;28;20807;-80
2022/11/18 00:31:01;;;;;;;4.85;3.30;;;;;;;6.63;100.00;99469.22;1037292;28;20364;-80
2022/11/18 00:31:33;;;;;;;9.00;2.67;;;;;;;6.64;100.00;99470.03;1036435;28;20549;-80
2022/11/18 00:32:05;;;;;;;4.82;2.45;;;;;;;6.63;100.00;99471.06;1035461;28;20436;-81
2022/11/18 00:32:36;;;;;;;8.40;3.10;;;;;;;6.65;100.00;99474.28;1032673;28;20421;-80
2022/11/18 00:33:08;;;;;;;8.60;3.10;;;;;;;6.62;100.00;99480.03;1035436;28;20383;-81
2022/11/18 00:33:40;;;;;;;10.57;2.80;;;;;;;6.60;100.00;99471.50;1034070;28;21040;-81
2022/11/18 00:34:14;;;;;;;7.38;3.10;;;;;;;6.64;100.00;99475.31;1031318;28;20293;-81
2022/11/18 00:34:45;;;;;;;8.02;2.83;;;;;;;6.64;100.00;99483.25;1027226;28;20389;-81
2022/11/18 00:35:17;;;;;;;4.53;3.92;;;;;;;6.67;100.00;99482.78;1027999;28;20302;-81
2022/11/18 00:35:54;;;;;;;5.88;3.38;;;;;;;6.63;100.00;99476.34;1035349;28;20308;-81
2022/11/18 00:36:27;;;;;;;6.63;2.83;;;;;;;6.61;100.00;99476.56;1043711;28;20291;-81
2022/11/18 00:36:59;;;;;;;6.72;3.72;;;;;;;6.65;100.00;99479.56;1043913;28;20283;-81
2022/11/18 00:37:30;;;;;;;5.85;3.15;;;;;;;6.68;100.00;99481.75;1039517;28;20658;-81
2022/11/18 00:38:02;;;;;;;7.35;3.45;;;;;;;6.87;100.00;99480.69;1039617;28;20410;-80
2022/11/18 00:38:33;;;;;;;7.05;3.75;;;;;;;6.97;100.00;99483.59;1035018;28;20339;-80
2022/11/18 00:39:05;;;;;;;8.25;4.85;;;;;;;6.91;100.00;99487.16;1031622;28;20360;-81
2022/11/18 00:39:36;;;;;;;10.35;4.43;;;;;;;6.94;100.00;99481.41;1035295;28;20304;-80
2022/11/18 00:40:08;;;;;;;5.82;3.35;;;;;;;6.87;100.00;99483.34;1031753;28;20449;-81
2022/11/18 00:40:40;;;;;;;8.07;4.15;;;;;;;6.85;100.00;99476.63;1027635;28;20302;-81
2022/11/18 00:41:14;;;;;;;8.07;4.75;;;;;;;6.84;100.00;99489.06;1031390;28;20356;-81
2022/11/18 00:42:51;;;;;;;8.07;3.65;;;;;;;7.02;100.00;99485.56;1035638;28;20300;-80
2022/11/18 00:43:22;;;;;;;9.55;3.60;;;;;;;7.11;100.00;99485.00;1044270;28;20369;-80
2022/11/18 00:43:54;;;;;;;13.52;4.57;;;;;;;7.03;100.00;99493.28;1043951;28;20312;-80
2022/11/18 00:44:25;;;;;;;7.68;4.43;;;;;;;7.11;100.00;99490.28;1043465;28;20346;-81
2022/11/18 00:44:57;;;;;;;9.18;4.63;;;;;;;7.11;100.00;99479.72;1038853;28;20299;-81
2022/11/18 00:45:28;;;;;;;5.53;4.03;;;;;;;7.11;100.00;99490.28;1035475;28;20443;-80
2022/11/18 00:46:00;;;;;;;7.70;4.10;;;;;;;7.11;100.00;99489.50;1030665;28;20337;-81
2022/11/18 00:46:31;;;;;;;7.22;4.35;;;;;;;7.16;100.00;99486.19;1027788;28;20302;-80
2022/11/18 00:47:03;;;;;;;5.88;3.55;;;;;;;7.11;100.00;99495.59;1031791;28;20810;-81
2022/11/18 00:47:35;;;;;;;5.53;3.50;;;;;;;7.17;100.00;99504.50;1033586;28;20337;-80
2022/11/18 00:48:06;;;;;;;5.38;3.20;;;;;;;7.15;100.00;99495.16;1036042;28;20328;-80
2022/11/18 00:48:39;;;;;;;7.10;3.17;;;;;;;7.26;100.00;99497.03;1035332;28;20296;-80
2022/11/18 00:49:10;;;;;;;7.90;3.05;;;;;;;7.18;100.00;99500.00;1032134;28;20659;-81
2022/11/18 00:49:42;;;;;;;8.57;3.47;;;;;;;7.20;100.00;99490.78;1036874;28;20747;-80
2022/11/18 00:50:14;;;;;;;7.10;3.00;;;;;;;7.24;100.00;99499.09;1040673;28;20689;-80
2022/11/18 00:50:47;;;;;;;3.97;2.97;;;;;;;7.20;100.00;99501.38;1032114;28;20300;-80
2022/11/18 00:51:18;;;;;;;8.05;2.80;;;;;;;7.31;100.00;99495.31;1035329;28;20382;-80
2022/11/18 00:51:50;;;;;;;10.25;3.40;;;;;;;7.34;100.00;99488.75;1031306;28;20797;-80
2022/11/18 00:52:22;;;;;;;4.57;2.47;;;;;;;7.35;100.00;99490.34;1028540;28;20748;-80
2022/11/18 00:52:53;;;;;;;6.28;2.83;;;;;;;7.28;100.00;99490.47;1035521;28;20300;-80
2022/11/18 00:53:25;;;;;;;5.95;3.05;;;;;;;7.25;100.00;99492.75;1035483;28;20362;-80
2022/11/18 00:53:57;;;;;;;7.28;2.83;;;;;;;7.20;100.00;99495.28;1037187;28;20352;-80
2022/11/18 00:54:28;;;;;;;8.70;3.35;;;;;;;7.22;100.00;99491.38;1043734;28;20346;-81
2022/11/18 00:55:00;;;;;;;7.03;3.45;;;;;;;7.21;100.00;99500.34;1034820;28;20418;-80
2022/11/18 00:55:31;;;;;;;9.10;3.03;;;;;;;7.19;100.00;99494.47;1031025;28;20314;-80
2022/11/18 00:56:03;;;;;;;6.78;2.90;;;;;;;7.15;100.00;99489.88;1027523;28;20326;-81
2022/11/18 00:56:35;;;;;;;8.43;3.20;;;;;;;7.16;100.00;99497.59;1029106;28;20469;-81
2022/11/18 00:57:07;;;;;;;6.57;2.67;;;;;;;7.12;100.00;99502.53;1032429;28;20760;-80
2022/11/18 00:57:38;;;;;;;5.90;2.97;;;;;;;7.11;100.00;99500.88;1030089;28;20352;-80
2022/11/18 00:58:13;;;;;;;9.70;3.38;;;;;;;7.25;100.00;99500.72;1035259;28;20315;-81
2022/11/18 00:58:44;;;;;;;8.02;3.17;;;;;;;7.17;100.00;99503.69;1035502;28;20612;-80
2022/11/18 00:59:16;;;;;;;6.13;2.47;;;;;;;7.16;100.00;99499.44;1034489;28;20310;-81
2022/11/18 00:59:48;;;;;;;6.05;2.63;;;;;;;7.35;100.00;99490.34;1031342;28;20404;-80
2022/11/18 01:00:20;;;;;;;5.55;2.72;;;;;;;7.21;100.00;99504.84;1031923;28;20698;-80
2022/11/18 01:00:52;;;;;;;7.53;2.70;;;;;;;7.37;100.00;99498.88;1031456;28;20395;-80
2022/11/18 01:01:24;;;;;;;7.00;3.42;;;;;;;7.32;100.00;99496.09;1033688;28;20309;-80
2022/11/18 01:01:55;;;;;;;7.38;3.20;;;;;;;7.25;100.00;99500.72;1035068;28;20304;-80
2022/11/18 01:02:27;;;;;;;6.32;3.22;;;;;;;7.32;100.00;99501.41;1035724;28;20767;-80
2022/11/18 01:02:58;;;;;;;5.43;3.10;;;;;;;7.28;100.00;99500.25;1037117;28;20304;-81
2022/11/18 01:03:31;;;;;;;9.00;2.95;;;;;;;7.24;100.00;99504.38;1031288;28;20784;-80
2022/11/18 01:04:03;;;;;;;4.90;2.50;;;;;;;7.34;100.00;99499.34;1030914;28;20341;-80
2022/11/18 01:04:34;;;;;;;3.08;2.38;;;;;;;7.35;100.00;99500.94;1022888;28;20390;-80
2022/11/18 01:05:06;;;;;;;11.95;3.28;;;;;;;7.27;100.00;99503.94;1030235;28;20361;-80
2022/11/18 01:05:38;;;;;;;7.32;3.33;;;;;;;7.25;100.00;99506.00;1030044;28;20456;-80
2022/11/18 01:06:09;;;;;;;4.47;2.78;;;;;;;7.28;100.00;99505.53;1028214;28;20389;-80
2022/11/18 01:06:41;;;;;;;4.95;2.60;;;;;;;7.26;100.00;99504.97;1037577;28;20371;-81
2022/11/18 01:07:13;;;;;;;6.63;2.90;;;;;;;7.34;100.00;99504.63;1035453;28;20810;-80
2022/11/18 01:07:45;;;;;;;10.13;3.25;;;;;;;7.32;100.00;99506.69;1034838;28;20308;-80
2022/11/18 01:08:18;;;;;;;5.78;2.78;;;;;;;7.29;100.00;99507.97;1031102;28;20345;-81
2022/11/18 01:08:50;;;;;;;8.65;3.17;;;;;;;7.30;100.00;99506.13;1032589;28;20305;-80
2022/11/18 01:09:21;;;;;;;4.85;2.47;;;;;;;7.20;100.00;99509.34;1041111;28;20323;-80
2022/11/18 01:09:53;;;;;;;11.55;4.25;;;;;;;7.16;100.00;99512.66;1039239;28;20310;-81
2022/11/18 01:10:25;;;;;;;7.72;3.10;;;;;;;7.10;100.00;99512.50;1035489;28;20670;-81
2022/11/18 01:13:17;;;;;;;9.63;2.72;;;;;;;7.03;100.00;99505.72;1031319;28;20301;-80
2022/11/18 01:13:29;;;;;;;4.45;3.67;;;;;;;7.30;100.00;99514.88;1043068;28;20669;-80
2022/11/18 01:14:01;;;;;;;7.30;2.85;;;;;;;7.34;100.00;99505.44;1040586;28;20346;-80
2022/11/18 01:14:32;;;;;;;5.97;2.28;;;;;;;7.37;100.00;99509.47;1035083;28;20340;-81
2022/11/18 01:15:04;;;;;;;7.47;3.10;;;;;;;7.26;100.00;99513.72;1031162;28;20484;-80
2022/11/18 01:15:41;;;;;;;2.85;2.03;;;;;;;7.10;100.00;99515.16;1031484;28;20488;-80
2022/11/18 01:16:17;;;;;;;4.82;3.00;;;;;;;7.03;100.00;99514.44;1031675;28;20795;-80
2022/11/18 01:16:53;;;;;;;5.10;2.45;;;;;;;6.97;100.00;99522.50;1035180;28;20324;-81
2022/11/18 01:17:24;;;;;;;4.90;2.67;;;;;;;6.97;100.00;99520.66;1039289;28;20304;-80
2022/11/18 01:17:56;;;;;;;5.93;2.47;;;;;;;6.88;100.00;99522.00;1040486;28;20371;-81
2022/11/18 01:18:29;;;;;;;3.20;2.40;;;;;;;6.95;100.00;99516.63;1035232;28;20378;-80
2022/11/18 01:19:01;;;;;;;2.67;2.10;;;;;;;6.89;100.00;99513.03;1028755;28;20321;-80
2022/11/18 01:19:32;;;;;;;4.93;2.38;;;;;;;6.87;100.00;99509.81;1031248;28;20335;-81
2022/11/18 01:20:04;;;;;;;10.32;2.60;;;;;;;7.06;100.00;99513.19;1031281;28;20704;-81
2022/11/18 01:20:36;;;;;;;4.82;2.30;;;;;;;7.18;100.00;99513.25;1035109;28;20391;-80
2022/11/18 01:21:07;;;;;;;5.35;2.50;;;;;;;7.19;100.00;99504.25;1035654;28;20387;-80
2022/11/18 01:21:39;;;;;;;7.53;2.40;;;;;;;7.17;100.00;99512.44;1031458;28;20305;-80
2022/11/18 01:22:10;;;;;;;4.22;2.03;;;;;;;7.13;100.00;99512.09;1027982;28;20429;-80
2022/11/18 01:22:42;;;;;;;3.72;2.33;;;;;;;7.12;100.00;99505.19;1031519;28;20313;-80
2022/11/18 01:23:14;;;;;;;4.88;2.72;;;;;;;7.03;100.00;99511.81;1031005;28;20437;-80
2022/11/18 01:23:46;;;;;;;8.30;2.95;;;;;;;6.95;100.00;99514.78;1031294;28;20714;-80
2022/11/18 01:24:17;;;;;;;7.18;2.28;;;;;;;6.94;100.00;99507.06;1030467;28;20813;-80
2022/11/18 01:24:49;;;;;;;4.50;2.42;;;;;;;6.89;100.00;99513.03;1028022;28;20349;-80
2022/11/18 01:25:20;;;;;;;5.88;2.50;;;;;;;6.89;100.00;99523.63;1027802;28;20753;-81
2022/11/18 01:25:52;;;;;;;2.72;2.42;;;;;;;6.91;100.00;99513.63;1027756;28;20396;-80
2022/11/18 01:26:23;;;;;;;7.25;2.10;;;;;;;6.84;100.00;99515.53;1031507;28;20384;-80
2022/11/18 01:26:55;;;;;;;3.78;2.30;;;;;;;6.80;100.00;99519.66;1025407;28;20298;-80
2022/11/18 01:27:27;;;;;;;7.03;3.83;;;;;;;6.75;100.00;99520.34;1027314;28;20285;-80
2022/11/18 01:27:58;;;;;;;12.77;2.47;;;;;;;6.71;100.00;99521.00;1031552;28;20680;-80
2022/11/18 01:28:30;;;;;;;3.78;2.63;;;;;;;6.68;100.00;99521.47;1031155;28;20376;-80
2022/11/18 01:29:01;;;;;;;6.13;2.53;;;;;;;6.58;100.00;99527.28;1027253;28;20740;-80
2022/11/18 01:29:33;;;;;;;3.33;2.25;;;;;;;6.68;100.00;99511.69;1027385;28;20313;-80
2022/11/18 01:30:05;;;;;;;4.88;2.55;;;;;;;6.70;100.00;99520.19;1035346;28;20639;-80
2022/11/18 01:30:38;;;;;;;5.53;2.20;;;;;;;6.62;100.00;99519.72;1030998;28;20396;-80
2022/11/18 01:31:15;;;;;;;4.18;2.63;;;;;;;6.66;100.00;99513.75;1028815;28;20400;-80
2022/11/18 01:31:46;;;;;;;8.82;2.95;;;;;;;6.69;100.00;99523.06;1035160;28;20355;-80
2022/11/18 01:32:38;;;;;;;;;;;;;;;6.84;100.00;99512.88;1035399;28;20309;-80
2022/11/18 01:33:09;;;;;;;;;;;;;;;6.86;100.00;99517.97;1029168;28;20036;-80
2022/11/18 01:33:41;;;;;;;6.88;2.40;;;;;;;6.75;100.00;99516.88;1033886;28;20004;-80
2022/11/18 01:34:13;;;;;;;5.40;2.55;;;;;;;6.73;100.00;99525.03;1031217;28;20319;-80
2022/11/18 01:34:44;;;;;;;6.43;3.35;;;;;;;6.60;100.00;99519.13;1032412;28;20297;-80
2022/11/18 01:35:16;;;;;;;4.43;2.90;;;;;;;6.60;100.00;99517.28;1030889;28;20444;-80
2022/11/18 01:35:47;;;;;;;8.95;2.80;;;;;;;6.58;100.00;99513.25;1034390;28;20916;-80
2022/11/18 01:36:24;;;;;;;7.22;3.13;;;;;;;6.55;100.00;99519.75;1039270;28;20366;-80
2022/11/18 01:36:56;;;;;;;4.90;2.60;;;;;;;6.54;100.00;99525.28;1037522;28;20372;-80
2022/11/18 01:37:28;;;;;;;6.38;2.58;;;;;;;6.59;100.00;99525.44;1043390;28;20310;-80
2022/11/18 01:37:59;;;;;;;3.95;2.10;;;;;;;6.63;100.00;99523.97;1042931;28;20374;-80
2022/11/18 01:38:31;;;;;;;4.70;2.55;;;;;;;6.65;100.00;99521.91;1043070;28;20428;-80
2022/11/18 01:39:03;;;;;;;9.25;2.45;;;;;;;6.56;100.00;99515.28;1043729;28;20307;-80
2022/11/18 01:39:34;;;;;;;4.88;2.72;;;;;;;6.54;100.00;99520.00;1040309;28;20315;-80
2022/11/18 01:40:08;;;;;;;5.22;2.60;;;;;;;6.48;100.00;99519.84;1039767;28;20377;-80
2022/11/18 01:40:40;;;;;;;7.80;2.50;;;;;;;6.44;100.00;99523.16;1035666;28;20296;-80
2022/11/18 01:41:11;;;;;;;3.63;2.80;;;;;;;6.40;100.00;99522.81;1035185;28;20970;-80
2022/11/18 01:41:43;;;;;;;6.13;2.60;;;;;;;6.39;100.00;99529.13;1026801;28;20434;-80
2022/11/18 01:42:15;;;;;;;8.55;2.42;;;;;;;6.35;100.00;99527.97;1023694;28;20313;-80
2022/11/18 01:42:47;;;;;;;3.38;2.30;;;;;;;6.36;100.00;99529.56;1027848;28;20820;-79
2022/11/18 01:43:20;;;;;;;4.35;2.50;;;;;;;6.48;100.00;99522.50;1027583;28;20346;-80
2022/11/18 01:44:00;;;;;;;4.43;2.50;;;;;;;6.61;100.00;99529.47;1027957;28;20911;-80
2022/11/18 01:45:08;;;;;;;4.30;2.50;;;;;;;6.55;100.00;99526.91;1034077;28;20336;-80
2022/11/18 01:45:42;;;;;;;6.05;2.53;;;;;;;6.56;100.00;99528.50;1031156;28;20759;-80
2022/11/18 01:46:14;;;;;;;5.63;2.13;;;;;;;6.46;100.00;99529.03;1027092;28;20377;-80
2022/11/18 01:46:46;;;;;;;9.45;2.95;;;;;;;6.42;100.00;99533.16;1027380;28;20294;-80
2022/11/18 01:47:18;;;;;;;10.30;3.20;;;;;;;6.36;100.00;99536.69;1023843;28;20339;-80
2022/11/18 01:48:16;;;;;;;7.10;2.70;;;;;;;6.31;100.00;99537.38;1031612;28;20384;-80
2022/11/18 01:48:51;;;;;;;2.70;2.30;;;;;;;6.27;100.00;99530.06;1034995;28;20424;-80
2022/11/18 01:49:23;;;;;;;4.30;1.95;;;;;;;6.20;100.00;99530.94;1040614;28;20441;-80
2022/11/18 01:49:55;;;;;;;5.07;2.53;;;;;;;6.23;100.00;99535.00;1042946;28;20374;-80
2022/11/18 01:50:27;;;;;;;6.20;2.42;;;;;;;6.19;100.00;99529.34;1039312;28;20337;-80
2022/11/18 01:51:04;;;;;;;6.70;2.08;;;;;;;6.32;100.00;99533.69;1035418;28;20312;-80
2022/11/18 01:51:43;;;;;;;6.38;2.33;;;;;;;6.53;100.00;99534.25;1036351;28;20443;-80
2022/11/18 01:52:15;;;;;;;5.68;2.50;;;;;;;6.37;100.00;99528.53;1029142;28;20326;-80
2022/11/18 01:52:47;;;;;;;8.50;2.85;;;;;;;6.28;100.00;99531.69;1027785;28;20302;-80
2022/11/18 01:53:27;;;;;;;11.63;3.40;;;;;;;6.23;100.00;99535.00;1028815;28;20372;-80
2022/11/18 01:54:12;;;;;;;6.03;2.80;;;;;;;6.21;100.00;99531.75;1029316;28;20306;-80
2022/11/18 01:54:47;;;;;;;3.30;2.28;;;;;;;6.16;100.00;99536.91;1038846;28;20358;-80
2022/11/18 01:55:23;;;;;;;4.75;2.70;;;;;;;6.13;100.00;99546.06;1038855;28;20378;-80
2022/11/18 01:55:57;;;;;;;9.57;2.92;;;;;;;6.11;100.00;99531.47;1035363;28;20312;-80
2022/11/18 01:56:33;;;;;;;8.55;2.65;;;;;;;6.05;100.00;99532.34;1031083;28;20360;-80
2022/11/18 01:57:13;;;;;;;3.05;2.40;;;;;;;6.06;100.00;99539.25;1028552;28;20353;-80
2022/11/18 01:57:46;;;;;;;6.38;2.50;;;;;;;6.03;100.00;99539.69;1028865;28;20321;-80
2022/11/18 01:58:25;;;;;;;6.47;2.47;;;;;;;6.03;100.00;99544.97;1029297;28;20959;-80
2022/11/18 01:58:59;;;;;;;3.90;2.38;;;;;;;6.01;100.00;99536.44;1036563;28;20297;-80
2022/11/18 01:59:35;;;;;;;7.15;3.97;;;;;;;5.94;100.00;99546.25;1037497;28;20332;-80
2022/11/18 02:00:07;;;;;;;5.45;3.03;;;;;;;5.92;100.00;99543.03;1033516;28;20913;-80
2022/11/18 02:00:39;;;;;;;10.90;4.18;;;;;;;5.98;100.00;99532.38;1024702;28;20341;-80
2022/11/18 02:01:11;;;;;;;4.35;2.17;;;;;;;6.06;100.00;99540.06;1024074;28;20325;-80
2022/11/18 02:01:42;;;;;;;5.35;2.40;;;;;;;5.99;100.00;99541.13;1026837;28;20437;-80
2022/11/18 02:02:14;;;;;;;6.38;2.75;;;;;;;5.94;100.00;99543.63;1031206;28;20348;-80
2022/11/18 02:02:46;;;;;;;5.35;2.60;;;;;;;5.96;100.00;99538.91;1032041;28;20336;-80
2022/11/18 02:03:19;;;;;;;8.13;3.15;;;;;;;5.94;100.00;99540.97;1027605;28;20360;-80
2022/11/18 02:03:53;;;;;;;7.45;2.45;;;;;;;6.04;100.00;99539.47;1022637;28;20345;-80
2022/11/18 02:04:26;;;;;;;3.75;2.53;;;;;;;6.00;100.00;99540.09;1025161;28;20665;-80
2022/11/18 02:04:57;;;;;;;5.60;2.53;;;;;;;6.09;100.00;99544.91;1023653;28;20343;-80
2022/11/18 02:05:30;;;;;;;7.32;2.65;;;;;;;5.99;100.00;99544.56;1028456;28;20810;-80
2022/11/18 02:06:03;;;;;;;4.03;2.40;;;;;;;5.93;100.00;99544.66;1031113;28;20676;-80
2022/11/18 02:06:35;;;;;;;11.25;2.67;;;;;;;5.96;100.00;99549.50;1028237;28;20335;-80
2022/11/18 02:07:07;;;;;;;4.28;2.78;;;;;;;5.96;100.00;99547.66;1037804;28;20828;-80
2022/11/18 02:07:41;;;;;;;8.25;2.83;;;;;;;6.00;100.00;99545.38;1030776;28;20400;-80
2022/11/18 02:08:14;;;;;;;4.75;2.33;;;;;;;6.00;100.00;99550.66;1027886;28;20360;-80
2022/11/18 02:08:46;;;;;;;3.70;2.67;;;;;;;6.03;100.00;99543.13;1028356;28;20294;-80
2022/11/18 02:09:18;;;;;;;7.22;2.45;;;;;;;5.97;100.00;99551.09;1027934;28;20298;-80
2022/11/18 02:09:52;;;;;;;6.63;3.25;;;;;;;6.07;100.00;99548.78;1031540;28;20683;-80
2022/11/18 02:10:23;;;;;;;6.15;2.97;;;;;;;6.08;100.00;99540.66;1032027;28;20296;-80
2022/11/18 02:10:55;;;;;;;5.15;2.85;;;;;;;6.16;100.00;99545.63;1035633;28;20308;-80
2022/11/18 02:12:17;;;;;;;5.03;2.90;;;;;;;6.29;100.00;99549.97;1040700;28;20322;-80
2022/11/18 02:12:50;;;;;;;12.57;3.70;;;;;;;6.28;100.00;99556.28;1032935;28;20293;-80
2022/11/18 02:13:22;;;;;;;3.40;2.50;;;;;;;6.38;100.00;99548.66;1034763;28;20352;-80
2022/11/18 02:13:54;;;;;;;7.35;2.92;;;;;;;6.37;100.00;99547.06;1038176;28;20665;-80
2022/11/18 02:14:28;;;;;;;7.10;2.72;;;;;;;6.33;100.00;99553.81;1035367;28;20307;-80
2022/11/18 02:15:00;;;;;;;6.25;2.85;;;;;;;6.31;100.00;99553.22;1024431;28;20347;-80
2022/11/18 02:15:41;;;;;;;8.35;2.72;;;;;;;6.35;100.00;99554.41;1031222;28;20880;-80
2022/11/18 02:16:19;;;;;;;3.70;2.42;;;;;;;6.39;100.00;99549.47;1036514;28;20300;-80
2022/11/18 02:17:09;;;;;;;9.32;3.45;;;;;;;6.36;100.00;99556.00;1034905;28;20384;-80
2022/11/18 02:17:50;;;;;;;4.65;2.35;;;;;;;6.49;100.00;99555.84;1037802;28;20390;-80
2022/11/18 02:18:49;;;;;;;7.93;2.70;;;;;;;6.56;100.00;99560.25;1035100;28;20346;-80
2022/11/18 02:19:45;;;;;;;6.25;2.58;;;;;;;6.46;100.00;99561.59;1037212;28;20806;-80
2022/11/18 02:20:43;;;;;;;9.13;3.78;;;;;;;6.51;100.00;99564.38;1038152;28;20303;-80
2022/11/18 02:21:39;;;;;;;9.40;3.95;;;;;;;6.46;100.00;99560.78;1037060;28;20375;-80
2022/11/18 02:22:29;;;;;;;9.43;3.30;;;;;;;6.46;100.00;99563.44;1032722;28;20345;-80
2022/11/18 02:23:29;;;;;;;6.07;2.88;;;;;;;6.46;100.00;99566.88;1035808;28;20735;-80
2022/11/18 02:24:34;;;;;;;7.00;2.95;;;;;;;6.41;100.00;99556.16;1041220;28;20397;-80
2022/11/18 02:25:30;;;;;;;7.28;2.83;;;;;;;6.48;100.00;99559.53;1041086;28;20292;-80
2022/11/18 02:26:23;;;;;;;5.55;3.55;;;;;;;6.55;100.00;99563.94;1030648;28;20309;-80
2022/11/18 02:27:25;;;;;;;7.78;3.40;;;;;;;6.70;100.00;99572.31;1033743;28;20795;-80
2022/11/18 02:28:19;;;;;;;6.90;3.10;;;;;;;6.64;100.00;99566.06;1036470;28;20311;-80
2022/11/18 02:29:00;;;;;;;6.53;3.15;;;;;;;6.62;100.00;99569.97;1037033;28;20411;-80
2022/11/18 02:29:37;;;;;;;12.55;4.00;;;;;;;6.73;100.00;99566.56;1035666;28;20358;-80
2022/11/18 02:30:10;;;;;;;4.45;3.10;;;;;;;6.76;100.00;99571.41;1035032;28;20104;-80
2022/11/18 02:30:49;;;;;;;4.88;3.35;;;;;;;6.87;100.00;99573.34;1033599;28;20399;-80
2022/11/18 02:31:32;;;;;;;10.70;3.22;;;;;;;6.81;100.00;99574.19;1033211;28;20356;-80
2022/11/18 02:32:12;;;;;;;12.32;4.47;;;;;;;6.89;100.00;99571.28;1031018;28;20289;-80
2022/11/18 02:32:49;;;;;;;6.25;3.50;;;;;;;6.97;100.00;99573.59;1030440;28;20312;-80
2022/11/18 02:33:24;;;;;;;8.23;4.38;;;;;;;6.90;100.00;99572.06;1035002;28;20101;-80
2022/11/18 02:34:06;;;;;;;8.77;3.75;;;;;;;7.02;100.00;99571.09;1039980;28;20354;-80
2022/11/18 02:35:07;;;;;;;9.57;3.47;;;;;;;6.98;100.00;99580.50;1035794;28;20312;-80
2022/11/18 02:35:45;;;;;;;8.10;4.68;;;;;;;6.94;100.00;99575.88;1034635;28;20324;-80
2022/11/18 02:36:21;;;;;;;7.70;3.45;;;;;;;6.93;100.00;99575.09;1034956;28;20390;-80
2022/11/18 02:37:16;;;;;;;7.15;3.28;;;;;;;6.98;100.00;99569.91;1038677;28;20304;-80
2022/11/18 02:37:58;;;;;;;6.07;3.38;;;;;;;7.12;100.00;99579.31;1038869;28;20338;-80
2022/11/18 02:38:41;;;;;;;11.05;3.42;;;;;;;7.11;100.00;99576.88;1034844;28;20671;-80
2022/11/18 02:39:19;;;;;;;10.20;4.10;;;;;;;7.08;100.00;99570.19;1030678;28;20391;-80
2022/11/18 02:39:57;;;;;;;5.07;2.88;;;;;;;7.15;100.00;99579.91;1030997;28;20663;-80
2022/11/18 02:40:32;;;;;;;6.53;2.83;;;;;;;7.20;100.00;99580.03;1034008;28;21010;-80
2022/11/18 02:41:07;;;;;;;12.68;4.38;;;;;;;7.13;100.00;99578.28;1029569;28;20317;-80
2022/11/18 02:41:40;;;;;;;11.35;4.63;;;;;;;7.15;100.00;99580.72;1033163;28;20441;-80
2022/11/18 02:42:13;;;;;;;5.80;3.38;;;;;;;7.17;100.00;99577.84;1023019;28;20338;-80
2022/11/18 02:42:51;;;;;;;7.80;4.00;;;;;;;7.21;100.00;99579.00;1024297;28;20302;-80
2022/11/18 02:43:32;;;;;;;5.53;3.25;;;;;;;7.17;100.00;99572.53;1028239;28;20305;-80
2022/11/18 02:44:14;;;;;;;6.45;3.50;;;;;;;7.26;100.00;99581.78;1028663;28;20386;-80
2022/11/18 02:44:50;;;;;;;7.20;3.20;;;;;;;7.16;100.00;99576.22;1034668;28;20293;-80
2022/11/18 02:45:23;;;;;;;7.03;4.07;;;;;;;7.20;100.00;99585.31;1030975;28;20298;-80
2022/11/18 02:45:59;;;;;;;10.63;3.75;;;;;;;7.22;100.00;99580.59;1028924;28;20353;-80
2022/11/18 02:46:35;;;;;;;9.00;3.38;;;;;;;7.22;100.00;99578.78;1026626;28;20377;-80
2022/11/18 02:47:10;;;;;;;7.93;3.92;;;;;;;7.19;100.00;99586.34;1026254;28;20330;-80
2022/11/18 02:47:44;;;;;;;7.63;3.78;;;;;;;7.21;100.00;99584.28;1026602;28;20397;-80
2022/11/18 02:48:17;;;;;;;6.78;3.85;;;;;;;7.29;100.00;99578.66;1026511;28;20392;-80
2022/11/18 02:48:50;;;;;;;9.70;3.35;;;;;;;7.26;100.00;99582.56;1028187;28;20413;-80
2022/11/18 02:49:28;;;;;;;5.07;3.63;;;;;;;7.20;100.00;99578.19;1032334;28;20691;-80
2022/11/18 02:50:03;;;;;;;12.50;3.75;;;;;;;7.27;100.00;99583.38;1030741;28;20383;-80
2022/11/18 02:50:36;;;;;;;12.80;4.00;;;;;;;7.20;100.00;99588.78;1029293;28;20298;-80